sensor_id;sensor_type;location;lat;lon;timestamp;pressure;altitude;pressure_sealevel;temperature;humidity
71889;BME280;59762;49.998;14.858;2023-08-12T00:00:10;97868.38;;;17.48;78.13
71889;BME280;59762;49.998;14.858;2023-08-12T00:02:59;97869.56;;;17.45;78.46
71889;BME280;59762;49.998;14.858;2023-08-12T00:05:25;97863.25;;;17.38;79.12
71889;BME280;59762;49.998;14.858;2023-08-12T00:07:50;97864.66;;;17.34;78.75
71889;BME280;59762;49.998;14.858;2023-08-12T00:10:16;97869.88;;;17.36;78.86
71889;BME280;59762;49.998;14.858;2023-08-12T00:12:42;97861.78;;;17.36;79.11
71889;BME280;59762;49.998;14.858;2023-08-12T00:15:08;97866.91;;;17.31;79.24
71889;BME280;59762;49.998;14.858;2023-08-12T00:17:36;97863.34;;;17.30;79.16
71889;BME280;59762;49.998;14.858;2023-08-12T00:20:04;97872.31;;;17.31;78.92
71889;BME280;59762;49.998;14.858;2023-08-12T00:22:36;97866.25;;;17.29;79.27
71889;BME280;59762;49.998;14.858;2023-08-12T00:25:02;97862.91;;;17.27;79.26
71889;BME280;59762;49.998;14.858;2023-08-12T00:27:28;97863.72;;;17.27;78.99
71889;BME280;59762;49.998;14.858;2023-08-12T00:29:54;97866.59;;;17.26;79.01
71889;BME280;59762;49.998;14.858;2023-08-12T00:32:19;97864.13;;;17.24;79.09
71889;BME280;59762;49.998;14.858;2023-08-12T00:34:45;97864.50;;;17.21;79.34
71889;BME280;59762;49.998;14.858;2023-08-12T00:37:11;97861.97;;;17.20;79.34
71889;BME280;59762;49.998;14.858;2023-08-12T00:39:36;97861.34;;;17.18;79.61
71889;BME280;59762;49.998;14.858;2023-08-12T00:42:02;97856.94;;;17.17;79.46
71889;BME280;59762;49.998;14.858;2023-08-12T00:44:28;97855.00;;;17.11;79.87
71889;BME280;59762;49.998;14.858;2023-08-12T00:46:54;97849.16;;;17.07;80.17
71889;BME280;59762;49.998;14.858;2023-08-12T00:49:21;97848.69;;;17.04;80.27
71889;BME280;59762;49.998;14.858;2023-08-12T00:51:49;97844.31;;;17.03;80.54
71889;BME280;59762;49.998;14.858;2023-08-12T00:54:16;97852.31;;;16.96;81.11
71889;BME280;59762;49.998;14.858;2023-08-12T00:56:42;97847.69;;;16.90;80.97
71889;BME280;59762;49.998;14.858;2023-08-12T00:59:08;97845.38;;;16.87;81.23
71889;BME280;59762;49.998;14.858;2023-08-12T01:01:36;97851.78;;;16.86;81.36
71889;BME280;59762;49.998;14.858;2023-08-12T01:04:04;97851.34;;;16.83;81.84
71889;BME280;59762;49.998;14.858;2023-08-12T01:06:30;97847.97;;;16.81;82.02
71889;BME280;59762;49.998;14.858;2023-08-12T01:08:56;97845.63;;;16.78;82.29
71889;BME280;59762;49.998;14.858;2023-08-12T01:11:28;97846.84;;;16.75;82.06
71889;BME280;59762;49.998;14.858;2023-08-12T01:16:45;97840.06;;;16.79;81.96
71889;BME280;59762;49.998;14.858;2023-08-12T01:19:30;97839.25;;;16.79;81.87
71889;BME280;59762;49.998;14.858;2023-08-12T01:22:00;97845.84;;;16.76;82.04
71889;BME280;59762;49.998;14.858;2023-08-12T01:24:27;97844.41;;;16.80;81.68
71889;BME280;59762;49.998;14.858;2023-08-12T01:26:59;97835.88;;;16.77;81.98
71889;BME280;59762;49.998;14.858;2023-08-12T01:29:25;97838.75;;;16.75;81.92
71889;BME280;59762;49.998;14.858;2023-08-12T01:32:01;97836.25;;;16.74;81.98
71889;BME280;59762;49.998;14.858;2023-08-12T01:34:48;97834.75;;;16.71;82.55
71889;BME280;59762;49.998;14.858;2023-08-12T01:37:35;97830.75;;;16.67;82.47
71889;BME280;59762;49.998;14.858;2023-08-12T01:40:02;97821.41;;;16.63;82.54
71889;BME280;59762;49.998;14.858;2023-08-12T01:42:32;97828.44;;;16.64;82.48
71889;BME280;59762;49.998;14.858;2023-08-12T01:44:57;97826.13;;;16.61;82.89
71889;BME280;59762;49.998;14.858;2023-08-12T01:47:23;97829.84;;;16.60;82.80
71889;BME280;59762;49.998;14.858;2023-08-12T01:49:49;97834.03;;;16.63;82.83
71889;BME280;59762;49.998;14.858;2023-08-12T01:52:15;97838.75;;;16.61;82.90
71889;BME280;59762;49.998;14.858;2023-08-12T01:54:41;97829.66;;;16.62;82.71
71889;BME280;59762;49.998;14.858;2023-08-12T01:57:07;97832.53;;;16.60;82.83
71889;BME280;59762;49.998;14.858;2023-08-12T01:59:35;97831.69;;;16.60;82.95
71889;BME280;59762;49.998;14.858;2023-08-12T02:02:01;97825.00;;;16.56;83.38
71889;BME280;59762;49.998;14.858;2023-08-12T02:04:27;97831.41;;;16.55;83.36
71889;BME280;59762;49.998;14.858;2023-08-12T02:06:53;97828.09;;;16.53;83.75
71889;BME280;59762;49.998;14.858;2023-08-12T02:09:19;97827.78;;;16.48;83.66
71889;BME280;59762;49.998;14.858;2023-08-12T02:11:45;97827.13;;;16.46;83.85
71889;BME280;59762;49.998;14.858;2023-08-12T02:14:11;97827.97;;;16.46;83.68
71889;BME280;59762;49.998;14.858;2023-08-12T02:16:37;97823.22;;;16.48;83.98
71889;BME280;59762;49.998;14.858;2023-08-12T02:19:03;97821.19;;;16.50;83.81
71889;BME280;59762;49.998;14.858;2023-08-12T02:21:29;97819.06;;;16.46;83.68
71889;BME280;59762;49.998;14.858;2023-08-12T02:23:54;97820.25;;;16.43;83.96
71889;BME280;59762;49.998;14.858;2023-08-12T02:26:20;97824.97;;;16.41;84.17
71889;BME280;59762;49.998;14.858;2023-08-12T02:28:45;97819.28;;;16.36;84.82
71889;BME280;59762;49.998;14.858;2023-08-12T02:31:11;97824.22;;;16.33;84.48
71889;BME280;59762;49.998;14.858;2023-08-12T02:33:37;97818.38;;;16.29;84.92
71889;BME280;59762;49.998;14.858;2023-08-12T02:36:03;97813.34;;;16.26;85.23
71889;BME280;59762;49.998;14.858;2023-08-12T02:38:29;97813.50;;;16.25;85.19
71889;BME280;59762;49.998;14.858;2023-08-12T02:40:55;97810.72;;;16.18;85.52
71889;BME280;59762;49.998;14.858;2023-08-12T02:43:21;97814.63;;;16.16;86.06
71889;BME280;59762;49.998;14.858;2023-08-12T02:45:46;97811.47;;;16.12;86.12
71889;BME280;59762;49.998;14.858;2023-08-12T02:48:12;97814.16;;;16.12;86.04
71889;BME280;59762;49.998;14.858;2023-08-12T02:50:39;97811.63;;;16.11;86.32
71889;BME280;59762;49.998;14.858;2023-08-12T02:53:05;97810.84;;;16.02;86.92
71889;BME280;59762;49.998;14.858;2023-08-12T02:55:32;97803.34;;;15.98;87.53
71889;BME280;59762;49.998;14.858;2023-08-12T02:57:58;97805.19;;;15.97;87.29
71889;BME280;59762;49.998;14.858;2023-08-12T03:00:24;97802.22;;;15.92;87.40
71889;BME280;59762;49.998;14.858;2023-08-12T03:02:49;97809.47;;;15.92;87.63
71889;BME280;59762;49.998;14.858;2023-08-12T03:05:15;97810.28;;;15.92;87.65
71889;BME280;59762;49.998;14.858;2023-08-12T03:07:41;97805.56;;;15.94;87.46
71889;BME280;59762;49.998;14.858;2023-08-12T03:10:07;97801.19;;;15.93;87.14
71889;BME280;59762;49.998;14.858;2023-08-12T03:12:34;97803.88;;;15.93;87.58
71889;BME280;59762;49.998;14.858;2023-08-12T03:15:01;97806.56;;;15.93;87.22
71889;BME280;59762;49.998;14.858;2023-08-12T03:17:27;97808.72;;;15.98;87.14
71889;BME280;59762;49.998;14.858;2023-08-12T03:19:52;97814.47;;;15.95;87.38
71889;BME280;59762;49.998;14.858;2023-08-12T03:22:20;97808.06;;;15.96;87.35
71889;BME280;59762;49.998;14.858;2023-08-12T03:24:47;97808.06;;;15.96;87.48
71889;BME280;59762;49.998;14.858;2023-08-12T03:27:12;97810.75;;;15.96;87.34
71889;BME280;59762;49.998;14.858;2023-08-12T03:29:38;97804.53;;;15.95;87.52
71889;BME280;59762;49.998;14.858;2023-08-12T03:32:04;97821.53;;;15.96;87.62
71889;BME280;59762;49.998;14.858;2023-08-12T03:34:30;97810.56;;;15.97;87.50
71889;BME280;59762;49.998;14.858;2023-08-12T03:36:55;97809.09;;;15.95;87.70
71889;BME280;59762;49.998;14.858;2023-08-12T03:39:21;97807.69;;;15.99;87.78
71889;BME280;59762;49.998;14.858;2023-08-12T03:41:46;97804.91;;;15.92;87.54
71889;BME280;59762;49.998;14.858;2023-08-12T03:44:12;97814.66;;;15.93;88.02
71889;BME280;59762;49.998;14.858;2023-08-12T03:46:38;97808.25;;;15.94;88.18
71889;BME280;59762;49.998;14.858;2023-08-12T03:49:04;97809.94;;;15.95;88.10
71889;BME280;59762;49.998;14.858;2023-08-12T03:51:29;97807.88;;;15.97;87.85
71889;BME280;59762;49.998;14.858;2023-08-12T03:53:55;97806.50;;;16.01;88.07
71889;BME280;59762;49.998;14.858;2023-08-12T03:56:22;97808.00;;;16.04;87.82
71889;BME280;59762;49.998;14.858;2023-08-12T03:58:48;97801.28;;;16.00;88.27
71889;BME280;59762;49.998;14.858;2023-08-12T04:01:13;97807.53;;;16.00;88.39
71889;BME280;59762;49.998;14.858;2023-08-12T04:03:39;97803.81;;;16.01;88.57
71889;BME280;59762;49.998;14.858;2023-08-12T04:06:05;97813.88;;;16.07;89.03
71889;BME280;59762;49.998;14.858;2023-08-12T04:08:30;97807.44;;;16.08;88.91
71889;BME280;59762;49.998;14.858;2023-08-12T04:10:57;97815.19;;;16.11;88.76
71889;BME280;59762;49.998;14.858;2023-08-12T04:13:23;97807.91;;;16.12;89.17
71889;BME280;59762;49.998;14.858;2023-08-12T04:15:50;97805.41;;;16.10;89.25
71889;BME280;59762;49.998;14.858;2023-08-12T04:18:16;97814.16;;;16.12;87.85
71889;BME280;59762;49.998;14.858;2023-08-12T04:20:42;97814.28;;;16.33;86.85
71889;BME280;59762;49.998;14.858;2023-08-12T04:23:08;97807.09;;;16.26;88.31
71889;BME280;59762;49.998;14.858;2023-08-12T04:25:33;97810.72;;;16.18;88.63
71889;BME280;59762;49.998;14.858;2023-08-12T04:27:59;97802.56;;;16.26;88.37
71889;BME280;59762;49.998;14.858;2023-08-12T04:30:25;97803.50;;;16.33;87.86
71889;BME280;59762;49.998;14.858;2023-08-12T04:32:52;97798.19;;;16.25;88.13
71889;BME280;59762;49.998;14.858;2023-08-12T04:35:17;97798.56;;;16.22;88.63
71889;BME280;59762;49.998;14.858;2023-08-12T04:37:43;97796.22;;;16.19;89.15
71889;BME280;59762;49.998;14.858;2023-08-12T04:40:09;97796.88;;;16.21;88.32
71889;BME280;59762;49.998;14.858;2023-08-12T04:42:35;97799.13;;;16.18;88.39
71889;BME280;59762;49.998;14.858;2023-08-12T04:45:00;97798.38;;;16.24;88.32
71889;BME280;59762;49.998;14.858;2023-08-12T04:47:26;97809.44;;;16.29;87.56
71889;BME280;59762;49.998;14.858;2023-08-12T04:49:52;97804.78;;;16.23;88.25
71889;BME280;59762;49.998;14.858;2023-08-12T04:52:18;97803.47;;;16.19;88.35
71889;BME280;59762;49.998;14.858;2023-08-12T04:54:43;97800.28;;;16.15;88.48
71889;BME280;59762;49.998;14.858;2023-08-12T04:57:09;97800.84;;;16.11;88.99
71889;BME280;59762;49.998;14.858;2023-08-12T04:59:35;97800.50;;;16.14;89.35
71889;BME280;59762;49.998;14.858;2023-08-12T05:02:01;97807.91;;;16.12;89.68
71889;BME280;59762;49.998;14.858;2023-08-12T05:04:27;97798.63;;;16.14;89.92
71889;BME280;59762;49.998;14.858;2023-08-12T05:06:53;97802.34;;;16.13;89.47
71889;BME280;59762;49.998;14.858;2023-08-12T05:09:18;97808.56;;;16.28;88.99
71889;BME280;59762;49.998;14.858;2023-08-12T05:11:44;97811.00;;;16.23;88.70
71889;BME280;59762;49.998;14.858;2023-08-12T05:14:10;97806.13;;;16.56;88.28
71889;BME280;59762;49.998;14.858;2023-08-12T05:16:36;97806.63;;;17.80;83.02
71889;BME280;59762;49.998;14.858;2023-08-12T05:19:01;97806.78;;;19.29;76.22
71889;BME280;59762;49.998;14.858;2023-08-12T05:21:27;97799.44;;;20.29;74.73
71889;BME280;59762;49.998;14.858;2023-08-12T05:23:53;97797.31;;;20.63;71.80
71889;BME280;59762;49.998;14.858;2023-08-12T05:26:18;97790.56;;;20.98;69.54
71889;BME280;59762;49.998;14.858;2023-08-12T05:28:45;97798.59;;;21.31;68.89
71889;BME280;59762;49.998;14.858;2023-08-12T05:31:11;97794.34;;;20.98;68.60
71889;BME280;59762;49.998;14.858;2023-08-12T05:33:36;97796.94;;;21.30;68.15
71889;BME280;59762;49.998;14.858;2023-08-12T05:36:02;97796.50;;;21.27;67.93
71889;BME280;59762;49.998;14.858;2023-08-12T05:38:28;97793.69;;;21.46;67.21
71889;BME280;59762;49.998;14.858;2023-08-12T05:40:54;97797.59;;;21.94;66.72
71889;BME280;59762;49.998;14.858;2023-08-12T05:43:19;97790.88;;;21.97;67.55
71889;BME280;59762;49.998;14.858;2023-08-12T05:45:45;97799.78;;;22.10;65.76
71889;BME280;59762;49.998;14.858;2023-08-12T05:48:11;97786.97;;;22.17;66.46
71889;BME280;59762;49.998;14.858;2023-08-12T05:50:37;97790.63;;;22.29;65.23
71889;BME280;59762;49.998;14.858;2023-08-12T05:53:02;97790.06;;;22.45;65.39
71889;BME280;59762;49.998;14.858;2023-08-12T05:55:28;97798.06;;;22.40;64.52
71889;BME280;59762;49.998;14.858;2023-08-12T05:57:54;97798.00;;;22.22;65.19
71889;BME280;59762;49.998;14.858;2023-08-12T06:00:20;97802.00;;;22.44;65.76
71889;BME280;59762;49.998;14.858;2023-08-12T06:02:45;97790.94;;;22.46;64.66
71889;BME280;59762;49.998;14.858;2023-08-12T06:05:11;97787.50;;;22.26;65.13
71889;BME280;59762;49.998;14.858;2023-08-12T06:07:36;97792.31;;;22.55;65.21
71889;BME280;59762;49.998;14.858;2023-08-12T06:10:03;97788.41;;;22.44;65.57
71889;BME280;59762;49.998;14.858;2023-08-12T06:12:29;97783.94;;;22.74;64.18
71889;BME280;59762;49.998;14.858;2023-08-12T06:14:55;97786.13;;;22.41;65.08
71889;BME280;59762;49.998;14.858;2023-08-12T06:17:21;97778.31;;;22.45;65.37
71889;BME280;59762;49.998;14.858;2023-08-12T06:19:46;97780.50;;;22.36;67.86
71889;BME280;59762;49.998;14.858;2023-08-12T06:22:12;97778.25;;;22.09;68.57
71889;BME280;59762;49.998;14.858;2023-08-12T06:24:38;97779.06;;;21.85;69.88
71889;BME280;59762;49.998;14.858;2023-08-12T06:27:03;97784.50;;;21.85;71.07
71889;BME280;59762;49.998;14.858;2023-08-12T06:29:29;97785.66;;;21.58;70.68
71889;BME280;59762;49.998;14.858;2023-08-12T06:31:54;97792.50;;;21.36;72.27
71889;BME280;59762;49.998;14.858;2023-08-12T06:34:21;97784.38;;;21.29;72.52
71889;BME280;59762;49.998;14.858;2023-08-12T06:36:46;97789.47;;;21.13;72.55
71889;BME280;59762;49.998;14.858;2023-08-12T06:39:12;97789.88;;;21.16;74.54
71889;BME280;59762;49.998;14.858;2023-08-12T06:41:38;97779.81;;;21.23;73.90
71889;BME280;59762;49.998;14.858;2023-08-12T06:44:04;97785.06;;;21.18;74.47
71889;BME280;59762;49.998;14.858;2023-08-12T06:46:30;97783.59;;;21.22;74.19
71889;BME280;59762;49.998;14.858;2023-08-12T06:48:57;97784.16;;;21.31;74.94
71889;BME280;59762;49.998;14.858;2023-08-12T06:51:23;97777.03;;;21.36;73.30
71889;BME280;59762;49.998;14.858;2023-08-12T06:53:49;97781.13;;;21.52;73.21
71889;BME280;59762;49.998;14.858;2023-08-12T06:56:14;97782.34;;;21.56;73.51
71889;BME280;59762;49.998;14.858;2023-08-12T06:58:40;97785.41;;;21.66;73.16
71889;BME280;59762;49.998;14.858;2023-08-12T07:01:05;97786.31;;;21.60;73.21
71889;BME280;59762;49.998;14.858;2023-08-12T07:03:31;97780.59;;;21.74;73.28
71889;BME280;59762;49.998;14.858;2023-08-12T07:05:58;97781.41;;;21.75;71.89
71889;BME280;59762;49.998;14.858;2023-08-12T07:08:24;97781.25;;;21.70;69.94
71889;BME280;59762;49.998;14.858;2023-08-12T07:10:49;97774.13;;;21.69;70.40
71889;BME280;59762;49.998;14.858;2023-08-12T07:13:15;97774.72;;;21.77;70.82
71889;BME280;59762;49.998;14.858;2023-08-12T07:15:41;97776.34;;;21.85;70.25
71889;BME280;59762;49.998;14.858;2023-08-12T07:18:06;97775.78;;;22.01;71.56
71889;BME280;59762;49.998;14.858;2023-08-12T07:20:32;97779.50;;;22.06;70.39
71889;BME280;59762;49.998;14.858;2023-08-12T07:22:58;97777.47;;;22.26;70.73
71889;BME280;59762;49.998;14.858;2023-08-12T07:25:24;97782.06;;;22.26;68.62
71889;BME280;59762;49.998;14.858;2023-08-12T07:27:49;97777.84;;;22.30;69.38
71889;BME280;59762;49.998;14.858;2023-08-12T07:30:15;97778.84;;;22.35;69.28
71889;BME280;59762;49.998;14.858;2023-08-12T07:32:41;97776.84;;;22.49;68.83
71889;BME280;59762;49.998;14.858;2023-08-12T07:35:07;97779.75;;;22.54;67.37
71889;BME280;59762;49.998;14.858;2023-08-12T07:37:33;97776.66;;;22.68;68.75
71889;BME280;59762;49.998;14.858;2023-08-12T07:39:59;97776.06;;;22.66;68.86
71889;BME280;59762;49.998;14.858;2023-08-12T07:42:25;97774.94;;;22.92;68.37
71889;BME280;59762;49.998;14.858;2023-08-12T07:44:50;97772.59;;;23.13;67.75
71889;BME280;59762;49.998;14.858;2023-08-12T07:47:16;97777.78;;;23.21;67.74
71889;BME280;59762;49.998;14.858;2023-08-12T07:49:42;97774.53;;;23.42;66.41
71889;BME280;59762;49.998;14.858;2023-08-12T07:52:09;97768.09;;;23.55;66.40
71889;BME280;59762;49.998;14.858;2023-08-12T07:54:35;97768.19;;;23.48;63.22
71889;BME280;59762;49.998;14.858;2023-08-12T07:57:01;97765.81;;;23.52;67.33
71889;BME280;59762;49.998;14.858;2023-08-12T07:59:26;97766.16;;;23.55;66.19
71889;BME280;59762;49.998;14.858;2023-08-12T08:01:52;97762.22;;;23.69;64.19
71889;BME280;59762;49.998;14.858;2023-08-12T08:04:18;97763.66;;;23.83;65.48
71889;BME280;59762;49.998;14.858;2023-08-12T08:06:44;97752.13;;;23.99;66.17
71889;BME280;59762;49.998;14.858;2023-08-12T08:09:09;97750.13;;;24.18;68.26
71889;BME280;59762;49.998;14.858;2023-08-12T08:11:36;97752.16;;;24.11;64.47
71889;BME280;59762;49.998;14.858;2023-08-12T08:14:02;97759.84;;;24.14;64.00
71889;BME280;59762;49.998;14.858;2023-08-12T08:16:28;97757.50;;;24.29;64.47
71889;BME280;59762;49.998;14.858;2023-08-12T08:18:53;97749.66;;;24.32;64.78
71889;BME280;59762;49.998;14.858;2023-08-12T08:21:19;97750.16;;;24.41;62.65
71889;BME280;59762;49.998;14.858;2023-08-12T08:23:45;97750.25;;;24.46;62.42
71889;BME280;59762;49.998;14.858;2023-08-12T08:26:11;97752.16;;;24.34;61.40
71889;BME280;59762;49.998;14.858;2023-08-12T08:28:38;97753.00;;;24.69;60.35
71889;BME280;59762;49.998;14.858;2023-08-12T08:31:04;97749.53;;;24.50;61.21
71889;BME280;59762;49.998;14.858;2023-08-12T08:33:30;97753.84;;;24.58;59.40
71889;BME280;59762;49.998;14.858;2023-08-12T08:35:56;97748.50;;;24.63;60.42
71889;BME280;59762;49.998;14.858;2023-08-12T08:38:21;97748.38;;;24.69;58.24
71889;BME280;59762;49.998;14.858;2023-08-12T08:40:49;97746.84;;;24.73;58.33
71889;BME280;59762;49.998;14.858;2023-08-12T08:43:20;97743.47;;;24.83;58.82
71889;BME280;59762;49.998;14.858;2023-08-12T08:45:49;97743.13;;;24.91;57.57
71889;BME280;59762;49.998;14.858;2023-08-12T08:48:17;97745.44;;;25.10;56.63
71889;BME280;59762;49.998;14.858;2023-08-12T08:50:45;97735.16;;;24.89;57.05
71889;BME280;59762;49.998;14.858;2023-08-12T08:53:11;97737.59;;;25.14;58.26
71889;BME280;59762;49.998;14.858;2023-08-12T08:55:40;97742.09;;;25.20;57.05
71889;BME280;59762;49.998;14.858;2023-08-12T08:58:06;97743.41;;;25.29;56.04
71889;BME280;59762;49.998;14.858;2023-08-12T09:00:32;97743.97;;;25.42;54.88
71889;BME280;59762;49.998;14.858;2023-08-12T09:02:58;97740.69;;;25.29;55.56
71889;BME280;59762;49.998;14.858;2023-08-12T09:05:25;97732.09;;;25.25;53.75
71889;BME280;59762;49.998;14.858;2023-08-12T09:07:51;97731.06;;;25.15;54.86
71889;BME280;59762;49.998;14.858;2023-08-12T09:10:20;97728.66;;;25.30;54.87
71889;BME280;59762;49.998;14.858;2023-08-12T09:12:47;97739.22;;;25.38;52.39
71889;BME280;59762;49.998;14.858;2023-08-12T09:15:13;97725.09;;;25.57;54.17
71889;BME280;59762;49.998;14.858;2023-08-12T09:17:39;97730.16;;;25.49;51.17
71889;BME280;59762;49.998;14.858;2023-08-12T09:20:05;97725.34;;;25.56;51.65
71889;BME280;59762;49.998;14.858;2023-08-12T09:22:37;97726.03;;;25.63;54.23
71889;BME280;59762;49.998;14.858;2023-08-12T09:25:03;97722.63;;;25.72;52.67
71889;BME280;59762;49.998;14.858;2023-08-12T09:27:32;97728.25;;;25.66;53.90
71889;BME280;59762;49.998;14.858;2023-08-12T09:29:58;97721.22;;;25.70;52.73
71889;BME280;59762;49.998;14.858;2023-08-12T09:32:24;97715.34;;;25.78;55.54
71889;BME280;59762;49.998;14.858;2023-08-12T09:34:54;97711.97;;;25.87;50.90
71889;BME280;59762;49.998;14.858;2023-08-12T09:37:21;97713.28;;;25.85;54.34
71889;BME280;59762;49.998;14.858;2023-08-12T09:39:48;97719.34;;;25.87;53.73
71889;BME280;59762;49.998;14.858;2023-08-12T09:42:15;97712.38;;;25.79;55.24
71889;BME280;59762;49.998;14.858;2023-08-12T09:44:41;97705.41;;;25.88;51.37
71889;BME280;59762;49.998;14.858;2023-08-12T09:47:07;97704.16;;;25.79;51.69
71889;BME280;59762;49.998;14.858;2023-08-12T09:49:39;97704.16;;;25.79;51.62
71889;BME280;59762;49.998;14.858;2023-08-12T09:52:06;97706.56;;;25.76;52.37
71889;BME280;59762;49.998;14.858;2023-08-12T09:54:32;97700.50;;;26.02;54.02
71889;BME280;59762;49.998;14.858;2023-08-12T09:57:00;97701.72;;;26.11;53.28
71889;BME280;59762;49.998;14.858;2023-08-12T09:59:30;97703.53;;;26.22;51.49
71889;BME280;59762;49.998;14.858;2023-08-12T10:01:57;97706.13;;;25.95;52.85
71889;BME280;59762;49.998;14.858;2023-08-12T10:04:27;97702.22;;;26.08;51.20
71889;BME280;59762;49.998;14.858;2023-08-12T10:06:54;97704.63;;;26.21;53.99
71889;BME280;59762;49.998;14.858;2023-08-12T10:09:20;97704.53;;;26.32;54.77
71889;BME280;59762;49.998;14.858;2023-08-12T10:11:46;97696.91;;;26.18;53.53
71889;BME280;59762;49.998;14.858;2023-08-12T10:14:13;97696.81;;;26.13;53.05
71889;BME280;59762;49.998;14.858;2023-08-12T10:16:42;97694.16;;;26.18;51.69
71889;BME280;59762;49.998;14.858;2023-08-12T10:19:11;97695.91;;;26.24;50.40
71889;BME280;59762;49.998;14.858;2023-08-12T10:21:37;97692.50;;;26.17;52.72
71889;BME280;59762;49.998;14.858;2023-08-12T10:24:03;97689.03;;;26.21;49.97
71889;BME280;59762;49.998;14.858;2023-08-12T10:26:32;97690.47;;;26.45;50.11
71889;BME280;59762;49.998;14.858;2023-08-12T10:28:59;97688.91;;;26.49;53.46
71889;BME280;59762;49.998;14.858;2023-08-12T10:31:27;97685.91;;;26.51;53.33
71889;BME280;59762;49.998;14.858;2023-08-12T10:33:59;97693.56;;;26.65;54.83
71889;BME280;59762;49.998;14.858;2023-08-12T10:36:26;97687.75;;;26.62;53.56
71889;BME280;59762;49.998;14.858;2023-08-12T10:38:53;97679.69;;;26.55;52.76
71889;BME280;59762;49.998;14.858;2023-08-12T10:41:21;97672.41;;;26.44;53.84
71889;BME280;59762;49.998;14.858;2023-08-12T10:43:54;97670.22;;;26.63;54.26
71889;BME280;59762;49.998;14.858;2023-08-12T10:46:27;97673.59;;;26.70;51.71
71889;BME280;59762;49.998;14.858;2023-08-12T10:48:58;97666.66;;;26.62;54.87
71889;BME280;59762;49.998;14.858;2023-08-12T10:51:44;97666.88;;;26.77;52.65
71889;BME280;59762;49.998;14.858;2023-08-12T10:57:04;97657.06;;;26.82;52.40
71889;BME280;59762;49.998;14.858;2023-08-12T11:02:27;97657.13;;;26.87;51.75
71889;BME280;59762;49.998;14.858;2023-08-12T11:07:55;97640.75;;;26.92;49.54
71889;BME280;59762;49.998;14.858;2023-08-12T11:10:22;97638.69;;;27.04;47.67
71889;BME280;59762;49.998;14.858;2023-08-12T11:15:37;97631.41;;;27.14;48.91
71889;BME280;59762;49.998;14.858;2023-08-12T11:18:08;97628.84;;;27.29;49.51
71889;BME280;59762;49.998;14.858;2023-08-12T11:20:34;97624.59;;;27.43;53.17
71889;BME280;59762;49.998;14.858;2023-08-12T11:23:01;97626.75;;;27.15;48.79
71889;BME280;59762;49.998;14.858;2023-08-12T11:25:28;97631.63;;;27.34;46.35
71889;BME280;59762;49.998;14.858;2023-08-12T11:27:54;97634.09;;;27.31;47.38
71889;BME280;59762;49.998;14.858;2023-08-12T11:30:21;97621.56;;;27.18;50.00
71889;BME280;59762;49.998;14.858;2023-08-12T11:32:50;97617.72;;;27.41;45.37
71889;BME280;59762;49.998;14.858;2023-08-12T11:35:17;97622.22;;;27.52;50.90
71889;BME280;59762;49.998;14.858;2023-08-12T11:37:45;97610.34;;;27.41;44.62
71889;BME280;59762;49.998;14.858;2023-08-12T11:40:15;97607.75;;;27.30;49.35
71889;BME280;59762;49.998;14.858;2023-08-12T11:42:43;97606.25;;;27.44;48.50
71889;BME280;59762;49.998;14.858;2023-08-12T11:45:11;97592.53;;;27.44;49.10
71889;BME280;59762;49.998;14.858;2023-08-12T11:47:39;97607.25;;;27.64;45.16
71889;BME280;59762;49.998;14.858;2023-08-12T11:50:06;97592.97;;;27.62;47.95
71889;BME280;59762;49.998;14.858;2023-08-12T11:52:32;97587.13;;;27.54;46.29
71889;BME280;59762;49.998;14.858;2023-08-12T11:54:58;97592.41;;;27.60;46.30
71889;BME280;59762;49.998;14.858;2023-08-12T11:57:26;97589.56;;;27.50;46.66
71889;BME280;59762;49.998;14.858;2023-08-12T11:59:53;97583.34;;;27.60;46.70
71889;BME280;59762;49.998;14.858;2023-08-12T12:02:23;97580.09;;;27.68;44.45
71889;BME280;59762;49.998;14.858;2023-08-12T12:04:51;97571.66;;;27.74;44.29
71889;BME280;59762;49.998;14.858;2023-08-12T12:07:21;97579.16;;;27.84;42.58
71889;BME280;59762;49.998;14.858;2023-08-12T12:09:50;97577.97;;;27.75;44.19
71889;BME280;59762;49.998;14.858;2023-08-12T12:12:16;97569.09;;;27.63;43.61
71889;BME280;59762;49.998;14.858;2023-08-12T12:14:42;97572.03;;;27.83;44.51
71889;BME280;59762;49.998;14.858;2023-08-12T12:17:09;97573.56;;;27.69;43.88
71889;BME280;59762;49.998;14.858;2023-08-12T12:19:40;97567.22;;;27.68;46.22
71889;BME280;59762;49.998;14.858;2023-08-12T12:22:06;97558.09;;;27.89;43.97
71889;BME280;59762;49.998;14.858;2023-08-12T12:24:46;97563.53;;;27.84;42.89
71889;BME280;59762;49.998;14.858;2023-08-12T12:27:15;97549.75;;;27.79;40.24
71889;BME280;59762;49.998;14.858;2023-08-12T12:29:41;97558.22;;;27.73;41.23
71889;BME280;59762;49.998;14.858;2023-08-12T12:32:06;97553.56;;;27.78;41.80
71889;BME280;59762;49.998;14.858;2023-08-12T12:34:32;97549.09;;;27.99;40.34
71889;BME280;59762;49.998;14.858;2023-08-12T12:36:58;97546.03;;;27.95;40.80
71889;BME280;59762;49.998;14.858;2023-08-12T12:39:24;97546.81;;;27.86;41.21
71889;BME280;59762;49.998;14.858;2023-08-12T12:41:50;97546.38;;;28.04;42.56
71889;BME280;59762;49.998;14.858;2023-08-12T12:44:16;97547.75;;;28.06;42.46
71889;BME280;59762;49.998;14.858;2023-08-12T12:46:41;97542.03;;;28.13;40.70
71889;BME280;59762;49.998;14.858;2023-08-12T12:49:07;97545.88;;;28.12;40.24
71889;BME280;59762;49.998;14.858;2023-08-12T12:51:33;97541.19;;;28.12;39.83
71889;BME280;59762;49.998;14.858;2023-08-12T12:53:58;97533.50;;;28.09;42.41
71889;BME280;59762;49.998;14.858;2023-08-12T12:56:24;97536.56;;;28.18;41.09
71889;BME280;59762;49.998;14.858;2023-08-12T12:58:50;97536.84;;;28.21;42.11
71889;BME280;59762;49.998;14.858;2023-08-12T13:01:16;97528.94;;;28.30;41.23